sensor_id;sensor_type;location;lat;lon;timestamp;pressure;altitude;pressure_sealevel;temperature;humidity
15382;BME280;7789;51.364;12.358;2022-10-03T00:03:49;100780.72;;;11.63;100.00
15382;BME280;7789;51.364;12.358;2022-10-03T00:09:22;100776.28;;;11.63;100.00
15382;BME280;7789;51.364;12.358;2022-10-03T00:14:40;100784.63;;;11.57;100.00
15382;BME280;7789;51.364;12.358;2022-10-03T00:20:02;100803.94;;;11.56;100.00
15382;BME280;7789;51.364;12.358;2022-10-03T00:25:26;100801.06;;;11.59;100.00
15382;BME280;7789;51.364;12.358;2022-10-03T00:31:03;100804.53;;;11.60;100.00
15382;BME280;7789;51.364;12.358;2022-10-03T00:36:21;100804.00;;;11.55;100.00
15382;BME280;7789;51.364;12.358;2022-10-03T00:53:35;100806.75;;;11.53;100.00
15382;BME280;7789;51.364;12.358;2022-10-03T00:59:02;100811.28;;;11.51;100.00
15382;BME280;7789;51.364;12.358;2022-10-03T01:04:49;100820.81;;;11.52;100.00
15382;BME280;7789;51.364;12.358;2022-10-03T01:10:14;100821.88;;;11.50;100.00
15382;BME280;7789;51.364;12.358;2022-10-03T01:15:31;100821.16;;;11.48;100.00
15382;BME280;7789;51.364;12.358;2022-10-03T01:21:07;100823.53;;;11.51;100.00
15382;BME280;7789;51.364;12.358;2022-10-03T01:26:51;100826.44;;;11.59;100.00
15382;BME280;7789;51.364;12.358;2022-10-03T01:32:13;100822.25;;;11.56;100.00
15382;BME280;7789;51.364;12.358;2022-10-03T01:37:44;100830.44;;;11.52;100.00
15382;BME280;7789;51.364;12.358;2022-10-03T01:43:12;100833.19;;;11.50;100.00
15382;BME280;7789;51.364;12.358;2022-10-03T01:48:43;100835.91;;;11.49;100.00
15382;BME280;7789;51.364;12.358;2022-10-03T01:54:05;100840.59;;;11.56;100.00
15382;BME280;7789;51.364;12.358;2022-10-03T01:59:23;100847.13;;;11.62;100.00
15382;BME280;7789;51.364;12.358;2022-10-03T02:05:10;100843.06;;;11.69;100.00
15382;BME280;7789;51.364;12.358;2022-10-03T02:10:31;100849.16;;;11.69;100.00
15382;BME280;7789;51.364;12.358;2022-10-03T02:15:55;100847.25;;;11.71;100.00
15382;BME280;7789;51.364;12.358;2022-10-03T02:21:21;100858.53;;;11.83;100.00
15382;BME280;7789;51.364;12.358;2022-10-03T02:44:56;100875.06;;;12.05;100.00
15382;BME280;7789;51.364;12.358;2022-10-03T02:50:57;100875.41;;;12.12;100.00
15382;BME280;7789;51.364;12.358;2022-10-03T02:56:36;100872.78;;;12.12;100.00
15382;BME280;7789;51.364;12.358;2022-10-03T03:02:17;100880.63;;;12.12;100.00
15382;BME280;7789;51.364;12.358;2022-10-03T03:08:17;100890.16;;;12.13;100.00
15382;BME280;7789;51.364;12.358;2022-10-03T03:20:10;100898.56;;;12.27;100.00
15382;BME280;7789;51.364;12.358;2022-10-03T03:25:42;100899.16;;;12.31;100.00
15382;BME280;7789;51.364;12.358;2022-10-03T03:31:06;100902.25;;;12.36;100.00
15382;BME280;7789;51.364;12.358;2022-10-03T03:36:25;100899.38;;;12.39;100.00
15382;BME280;7789;51.364;12.358;2022-10-03T03:42:04;100899.97;;;12.42;100.00
15382;BME280;7789;51.364;12.358;2022-10-03T03:47:57;100899.97;;;12.42;100.00
15382;BME280;7789;51.364;12.358;2022-10-03T03:53:53;100915.69;;;12.42;100.00
15382;BME280;7789;51.364;12.358;2022-10-03T03:59:25;100914.91;;;12.31;100.00
15382;BME280;7789;51.364;12.358;2022-10-03T04:04:58;100905.84;;;12.24;100.00
15382;BME280;7789;51.364;12.358;2022-10-03T04:10:20;100920.06;;;12.21;100.00
15382;BME280;7789;51.364;12.358;2022-10-03T04:15:46;100919.44;;;12.29;100.00
15382;BME280;7789;51.364;12.358;2022-10-03T04:21:29;100931.34;;;12.33;100.00
15382;BME280;7789;51.364;12.358;2022-10-03T04:27:03;100930.03;;;12.38;100.00
15382;BME280;7789;51.364;12.358;2022-10-03T04:32:41;100930.03;;;12.38;100.00
15382;BME280;7789;51.364;12.358;2022-10-03T04:38:05;100928.63;;;12.34;100.00
15382;BME280;7789;51.364;12.358;2022-10-03T04:43:36;100925.75;;;12.26;100.00
15382;BME280;7789;51.364;12.358;2022-10-03T04:48:52;100927.66;;;12.24;100.00
15382;BME280;7789;51.364;12.358;2022-10-03T04:54:14;100930.03;;;12.27;100.00
15382;BME280;7789;51.364;12.358;2022-10-03T04:59:41;100930.28;;;12.24;100.00
15382;BME280;7789;51.364;12.358;2022-10-03T05:05:03;100934.56;;;12.25;100.00
15382;BME280;7789;51.364;12.358;2022-10-03T05:10:43;100931.09;;;12.25;100.00
15382;BME280;7789;51.364;12.358;2022-10-03T05:16:08;100942.19;;;12.28;100.00
15382;BME280;7789;51.364;12.358;2022-10-03T05:21:39;100955.66;;;12.24;100.00
15382;BME280;7789;51.364;12.358;2022-10-03T05:26:58;100951.00;;;12.27;100.00
15382;BME280;7789;51.364;12.358;2022-10-03T05:32:32;100953.97;;;12.34;100.00
15382;BME280;7789;51.364;12.358;2022-10-03T05:37:56;100955.41;;;12.38;100.00
15382;BME280;7789;51.364;12.358;2022-10-03T05:43:25;100957.66;;;12.42;100.00
15382;BME280;7789;51.364;12.358;2022-10-03T05:48:47;100965.88;;;12.49;100.00
15382;BME280;7789;51.364;12.358;2022-10-03T06:00:34;100977.41;;;12.57;100.00
15382;BME280;7789;51.364;12.358;2022-10-03T06:06:14;100986.94;;;12.69;100.00
15382;BME280;7789;51.364;12.358;2022-10-03T06:11:52;100994.19;;;12.77;100.00
15382;BME280;7789;51.364;12.358;2022-10-03T06:18:00;100996.63;;;12.89;100.00
15382;BME280;7789;51.364;12.358;2022-10-03T06:35:31;101010.28;;;13.14;100.00
15382;BME280;7789;51.364;12.358;2022-10-03T06:41:38;101014.41;;;13.28;100.00
15382;BME280;7789;51.364;12.358;2022-10-03T06:47:18;101022.34;;;13.37;100.00
15382;BME280;7789;51.364;12.358;2022-10-03T06:53:01;101029.06;;;13.51;100.00
15382;BME280;7789;51.364;12.358;2022-10-03T07:10:26;101030.94;;;13.80;100.00
15382;BME280;7789;51.364;12.358;2022-10-03T07:27:36;101038.09;;;14.59;100.00
15382;BME280;7789;51.364;12.358;2022-10-03T07:50:43;101073.97;;;15.08;100.00
15382;BME280;7789;51.364;12.358;2022-10-03T07:56:24;101075.44;;;15.01;100.00
15382;BME280;7789;51.364;12.358;2022-10-03T08:01:49;101072.97;;;15.00;100.00
15382;BME280;7789;51.364;12.358;2022-10-03T08:07:23;101085.88;;;15.03;100.00
15382;BME280;7789;51.364;12.358;2022-10-03T08:12:59;101092.25;;;15.10;100.00
15382;BME280;7789;51.364;12.358;2022-10-03T08:18:35;101086.00;;;15.20;100.00
15382;BME280;7789;51.364;12.358;2022-10-03T08:24:26;101092.97;;;15.40;100.00
15382;BME280;7789;51.364;12.358;2022-10-03T08:30:07;101090.78;;;15.55;100.00
15382;BME280;7789;51.364;12.358;2022-10-03T08:35:43;101099.09;;;15.79;100.00
15382;BME280;7789;51.364;12.358;2022-10-03T08:47:15;101102.69;;;15.87;99.81
15382;BME280;7789;51.364;12.358;2022-10-03T08:52:33;101095.00;;;16.03;98.70
15382;BME280;7789;51.364;12.358;2022-10-03T08:58:07;101095.19;;;16.02;97.40
15382;BME280;7789;51.364;12.358;2022-10-03T09:03:56;101101.28;;;15.93;96.38
15382;BME280;7789;51.364;12.358;2022-10-03T09:09:39;101099.19;;;16.06;94.23
15382;BME280;7789;51.364;12.358;2022-10-03T09:20:59;101109.09;;;16.40;92.03
15382;BME280;7789;51.364;12.358;2022-10-03T09:26:54;101111.97;;;16.56;92.18
15382;BME280;7789;51.364;12.358;2022-10-03T09:44:22;101109.81;;;16.69;89.55
15382;BME280;7789;51.364;12.358;2022-10-03T09:50:00;101112.41;;;16.78;87.74
15382;BME280;7789;51.364;12.358;2022-10-03T09:55:41;101122.94;;;16.88;85.72
15382;BME280;7789;51.364;12.358;2022-10-03T10:01:23;101124.28;;;16.92;86.24
15382;BME280;7789;51.364;12.358;2022-10-03T10:07:23;101124.66;;;17.06;85.70
15382;BME280;7789;51.364;12.358;2022-10-03T10:24:54;101098.94;;;17.61;81.37
15382;BME280;7789;51.364;12.358;2022-10-03T10:30:22;101106.09;;;17.86;80.45
15382;BME280;7789;51.364;12.358;2022-10-03T10:59:39;101096.25;;;18.80;74.66
15382;BME280;7789;51.364;12.358;2022-10-03T11:17:07;101095.34;;;19.05;71.52
15382;BME280;7789;51.364;12.358;2022-10-03T11:40:04;101091.28;;;18.77;70.81
15382;BME280;7789;51.364;12.358;2022-10-03T11:45:30;101095.91;;;18.75;70.21
15382;BME280;7789;51.364;12.358;2022-10-03T11:50:49;101105.31;;;18.70;71.10
15382;BME280;7789;51.364;12.358;2022-10-03T11:56:34;101101.28;;;18.58;70.38
15382;BME280;7789;51.364;12.358;2022-10-03T12:01:53;101105.06;;;18.47;72.36
15382;BME280;7789;51.364;12.358;2022-10-03T12:13:16;101087.22;;;18.57;70.87
15382;BME280;7789;51.364;12.358;2022-10-03T12:18:47;101095.53;;;18.62;71.04
15382;BME280;7789;51.364;12.358;2022-10-03T12:24:24;101091.41;;;18.68;70.45
15382;BME280;7789;51.364;12.358;2022-10-03T12:29:43;101082.34;;;18.78;68.97
15382;BME280;7789;51.364;12.358;2022-10-03T12:35:11;101091.63;;;18.82;69.90
15382;BME280;7789;51.364;12.358;2022-10-03T12:40:25;101088.47;;;18.78;70.54
15382;BME280;7789;51.364;12.358;2022-10-03T12:45:58;101083.47;;;18.68;69.83
15382;BME280;7789;51.364;12.358;2022-10-03T12:51:30;101077.50;;;18.66;70.73
15382;BME280;7789;51.364;12.358;2022-10-03T13:02:39;101082.34;;;18.78;71.88
15382;BME280;7789;51.364;12.358;2022-10-03T13:07:55;101079.69;;;18.78;71.86
15382;BME280;7789;51.364;12.358;2022-10-03T13:13:30;101065.13;;;18.82;71.51
15382;BME280;7789;51.364;12.358;2022-10-03T13:18:49;101065.78;;;18.76;69.37
15382;BME280;7789;51.364;12.358;2022-10-03T13:24:19;101064.28;;;18.73;68.99
15382;BME280;7789;51.364;12.358;2022-10-03T13:29:42;101059.81;;;18.74;69.10
15382;BME280;7789;51.364;12.358;2022-10-03T13:35:21;101057.97;;;18.74;67.08
15382;BME280;7789;51.364;12.358;2022-10-03T13:40:53;101064.25;;;18.66;68.67
15382;BME280;7789;51.364;12.358;2022-10-03T13:46:32;101072.47;;;18.55;69.36
15382;BME280;7789;51.364;12.358;2022-10-03T13:51:55;101067.13;;;18.47;69.42
15382;BME280;7789;51.364;12.358;2022-10-03T13:57:26;101077.84;;;18.37;69.08
15382;BME280;7789;51.364;12.358;2022-10-03T14:02:50;101085.16;;;18.18;70.57
15382;BME280;7789;51.364;12.358;2022-10-03T14:08:11;101077.94;;;18.02;72.82
15382;BME280;7789;51.364;12.358;2022-10-03T14:13:30;101076.34;;;17.84;73.84
15382;BME280;7789;51.364;12.358;2022-10-03T14:18:53;101073.03;;;17.64;75.70
15382;BME280;7789;51.364;12.358;2022-10-03T14:24:47;101064.66;;;17.51;77.17
15382;BME280;7789;51.364;12.358;2022-10-03T14:30:08;101070.19;;;17.40;76.21
15382;BME280;7789;51.364;12.358;2022-10-03T14:35:32;101062.31;;;17.31;76.10
15382;BME280;7789;51.364;12.358;2022-10-03T14:41:02;101055.63;;;17.27;75.32
15382;BME280;7789;51.364;12.358;2022-10-03T14:46:17;101046.53;;;17.21;75.06
15382;BME280;7789;51.364;12.358;2022-10-03T14:51:45;101048.41;;;17.29;75.32
15382;BME280;7789;51.364;12.358;2022-10-03T14:57:30;101057.34;;;17.45;75.79
15382;BME280;7789;51.364;12.358;2022-10-03T15:03:20;101055.06;;;17.50;74.62
15382;BME280;7789;51.364;12.358;2022-10-03T15:08:43;101057.56;;;17.52;75.20
15382;BME280;7789;51.364;12.358;2022-10-03T15:14:11;101056.72;;;17.51;75.26
15382;BME280;7789;51.364;12.358;2022-10-03T15:19:29;101059.00;;;17.46;74.99
15382;BME280;7789;51.364;12.358;2022-10-03T15:24:39;101051.50;;;17.42;74.64
15382;BME280;7789;51.364;12.358;2022-10-03T15:30:05;101039.94;;;17.43;74.88
15382;BME280;7789;51.364;12.358;2022-10-03T15:35:22;101042.09;;;17.39;76.15
15382;BME280;7789;51.364;12.358;2022-10-03T15:40:53;101045.19;;;17.35;76.11
15382;BME280;7789;51.364;12.358;2022-10-03T15:46:32;101049.75;;;17.33;76.85
15382;BME280;7789;51.364;12.358;2022-10-03T15:51:42;101043.41;;;17.26;75.83
15382;BME280;7789;51.364;12.358;2022-10-03T15:56:54;101044.38;;;17.25;76.33
15382;BME280;7789;51.364;12.358;2022-10-03T16:02:14;101046.53;;;17.21;76.35
15382;BME280;7789;51.364;12.358;2022-10-03T16:07:32;101045.63;;;17.13;76.99
15382;BME280;7789;51.364;12.358;2022-10-03T16:12:49;101041.75;;;17.07;77.49
15382;BME280;7789;51.364;12.358;2022-10-03T16:18:47;101048.03;;;17.06;77.78
15382;BME280;7789;51.364;12.358;2022-10-03T16:23:57;101050.56;;;16.98;78.80
15382;BME280;7789;51.364;12.358;2022-10-03T16:29:12;101052.84;;;16.93;79.64
15382;BME280;7789;51.364;12.358;2022-10-03T16:34:25;101057.56;;;16.90;79.83
15382;BME280;7789;51.364;12.358;2022-10-03T16:39:36;101062.34;;;16.86;80.00
15382;BME280;7789;51.364;12.358;2022-10-03T16:45:12;101069.84;;;16.81;80.29
15382;BME280;7789;51.364;12.358;2022-10-03T16:50:39;101079.38;;;16.75;80.96
15382;BME280;7789;51.364;12.358;2022-10-03T16:55:54;101076.47;;;16.68;81.53
15382;BME280;7789;51.364;12.358;2022-10-03T17:01:05;101069.03;;;16.54;83.02
15382;BME280;7789;51.364;12.358;2022-10-03T17:06:36;101059.75;;;16.50;83.76
15382;BME280;7789;51.364;12.358;2022-10-03T17:11:58;101066.44;;;16.45;84.51
15382;BME280;7789;51.364;12.358;2022-10-03T17:17:07;101057.28;;;16.39;85.12
15382;BME280;7789;51.364;12.358;2022-10-03T17:22:44;101052.00;;;16.39;86.26
15382;BME280;7789;51.364;12.358;2022-10-03T17:27:54;101059.66;;;16.33;86.53
15382;BME280;7789;51.364;12.358;2022-10-03T17:33:18;101053.16;;;16.27;87.13
15382;BME280;7789;51.364;12.358;2022-10-03T17:38:40;101059.84;;;16.22;87.50
15382;BME280;7789;51.364;12.358;2022-10-03T17:43:58;101066.41;;;16.18;87.52
15382;BME280;7789;51.364;12.358;2022-10-03T17:49:21;101067.09;;;16.10;88.10
15382;BME280;7789;51.364;12.358;2022-10-03T17:54:35;101047.09;;;16.08;88.19
15382;BME280;7789;51.364;12.358;2022-10-03T17:59:53;101051.03;;;16.04;88.96
15382;BME280;7789;51.364;12.358;2022-10-03T18:05:12;101057.00;;;15.96;89.73
15382;BME280;7789;51.364;12.358;2022-10-03T18:10:25;101069.63;;;15.93;89.74
15382;BME280;7789;51.364;12.358;2022-10-03T18:21:30;101058.00;;;15.86;90.42
15382;BME280;7789;51.364;12.358;2022-10-03T18:27:08;101073.28;;;15.82;90.93
15382;BME280;7789;51.364;12.358;2022-10-03T18:32:29;101064.81;;;15.79;90.74
15382;BME280;7789;51.364;12.358;2022-10-03T18:37:59;101052.75;;;15.76;91.52
15382;BME280;7789;51.364;12.358;2022-10-03T18:43:30;101062.75;;;15.73;91.94
15382;BME280;7789;51.364;12.358;2022-10-03T18:49:03;101063.03;;;15.70;91.54
15382;BME280;7789;51.364;12.358;2022-10-03T18:54:43;101071.91;;;15.69;92.07
15382;BME280;7789;51.364;12.358;2022-10-03T19:00:03;101066.78;;;15.67;91.91
15382;BME280;7789;51.364;12.358;2022-10-03T19:05:14;101064.13;;;15.67;92.80
15382;BME280;7789;51.364;12.358;2022-10-03T19:10:41;101061.38;;;15.69;92.15
15382;BME280;7789;51.364;12.358;2022-10-03T19:22:18;101065.41;;;15.63;93.59
15382;BME280;7789;51.364;12.358;2022-10-03T19:27:44;101070.09;;;15.60;93.26
15382;BME280;7789;51.364;12.358;2022-10-03T19:33:01;101072.91;;;15.58;92.08
15382;BME280;7789;51.364;12.358;2022-10-03T19:38:42;101079.66;;;15.61;93.00
15382;BME280;7789;51.364;12.358;2022-10-03T19:44:01;101077.03;;;15.61;93.21
15382;BME280;7789;51.364;12.358;2022-10-03T19:49:23;101069.28;;;15.59;93.03
15382;BME280;7789;51.364;12.358;2022-10-03T19:54:50;101071.34;;;15.56;92.76
15382;BME280;7789;51.364;12.358;2022-10-03T19:59:59;101063.06;;;15.51;92.88
15382;BME280;7789;51.364;12.358;2022-10-03T20:05:22;101061.38;;;15.50;93.83
15382;BME280;7789;51.364;12.358;2022-10-03T20:10:51;101067.59;;;15.49;94.01
15382;BME280;7789;51.364;12.358;2022-10-03T20:16:11;101075.09;;;15.44;93.77
15382;BME280;7789;51.364;12.358;2022-10-03T20:21:29;101061.13;;;15.43;93.42
15382;BME280;7789;51.364;12.358;2022-10-03T20:26:45;101057.78;;;15.41;93.96
15382;BME280;7789;51.364;12.358;2022-10-03T20:31:58;101055.28;;;15.40;93.82
15382;BME280;7789;51.364;12.358;2022-10-03T20:37:24;101060.53;;;15.40;93.57
15382;BME280;7789;51.364;12.358;2022-10-03T20:42:40;101053.75;;;15.37;93.83
15382;BME280;7789;51.364;12.358;2022-10-03T20:48:06;101059.00;;;15.37;93.42
15382;BME280;7789;51.364;12.358;2022-10-03T20:53:31;101054.72;;;15.36;93.14
15382;BME280;7789;51.364;12.358;2022-10-03T20:58:54;101058.19;;;15.37;93.27
15382;BME280;7789;51.364;12.358;2022-10-03T21:04:18;101060.81;;;15.37;93.68
15382;BME280;7789;51.364;12.358;2022-10-03T21:09:41;101057.63;;;15.33;94.05
15382;BME280;7789;51.364;12.358;2022-10-03T21:14:59;101053.34;;;15.32;94.46
15382;BME280;7789;51.364;12.358;2022-10-03T21:20:42;101042.34;;;15.27;93.79
15382;BME280;7789;51.364;12.358;2022-10-03T21:25:54;101051.94;;;15.28;93.57
15382;BME280;7789;51.364;12.358;2022-10-03T21:31:24;101046.78;;;15.27;94.30
15382;BME280;7789;51.364;12.358;2022-10-03T21:36:45;101050.53;;;15.24;94.02
15382;BME280;7789;51.364;12.358;2022-10-03T21:42:14;101050.53;;;15.24;94.18
15382;BME280;7789;51.364;12.358;2022-10-03T21:47:39;101054.16;;;15.23;94.55
15382;BME280;7789;51.364;12.358;2022-10-03T21:53:20;101045.53;;;15.21;94.96
15382;BME280;7789;51.364;12.358;2022-10-03T21:58:52;101037.63;;;15.21;95.00
15382;BME280;7789;51.364;12.358;2022-10-03T22:04:20;101044.16;;;15.17;95.43
15382;BME280;7789;51.364;12.358;2022-10-03T22:09:30;101040.00;;;15.15;95.17
15382;BME280;7789;51.364;12.358;2022-10-03T22:14:46;101036.53;;;15.14;95.53
15382;BME280;7789;51.364;12.358;2022-10-03T22:20:27;101031.13;;;15.16;95.73
15382;BME280;7789;51.364;12.358;2022-10-03T22:26:09;101037.22;;;15.16;96.19
15382;BME280;7789;51.364;12.358;2022-10-03T22:31:36;101033.19;;;15.12;95.64
15382;BME280;7789;51.364;12.358;2022-10-03T22:43:04;101033.88;;;15.05;95.90
15382;BME280;7789;51.364;12.358;2022-10-03T22:48:15;101032.50;;;15.01;96.30
15382;BME280;7789;51.364;12.358;2022-10-03T22:53:27;101023.63;;;14.92;96.52
15382;BME280;7789;51.364;12.358;2022-10-03T22:58:46;101023.19;;;14.87;96.84
15382;BME280;7789;51.364;12.358;2022-10-03T23:03:57;101025.78;;;14.78;97.05
15382;BME280;7789;51.364;12.358;2022-10-03T23:09:20;101029.94;;;14.71;97.43
15382;BME280;7789;51.364;12.358;2022-10-03T23:14:34;101026.75;;;14.68;97.34
15382;BME280;7789;51.364;12.358;2022-10-03T23:19:54;101025.78;;;14.69;98.42
15382;BME280;7789;51.364;12.358;2022-10-03T23:25:15;101020.78;;;14.66;97.39
15382;BME280;7789;51.364;12.358;2022-10-03T23:30:48;101021.38;;;14.69;98.22
15382;BME280;7789;51.364;12.358;2022-10-03T23:36:04;101026.22;;;14.64;97.59
15382;BME280;7789;51.364;12.358;2022-10-03T23:41:56;101031.47;;;14.64;98.81
15382;BME280;7789;51.364;12.358;2022-10-03T23:47:11;101033.53;;;14.61;98.07
15382;BME280;7789;51.364;12.358;2022-10-03T23:52:23;101035.59;;;14.57;98.88
15382;BME280;7789;51.364;12.358;2022-10-03T23:57:30;101039.31;;;14.55;98.85
